createdAt,value
2017-12-20T00:00:45.123Z,5.80
2017-12-20T00:03:16.243Z,5.90
2017-12-20T00:05:43.903Z,5.90
2017-12-20T00:08:11.460Z,5.90
2017-12-20T00:10:38.927Z,5.80
2017-12-20T00:13:09.207Z,5.80
2017-12-20T00:15:36.674Z,5.90
2017-12-20T00:18:04.182Z,5.80
2017-12-20T00:20:33.549Z,5.80
2017-12-20T00:23:01.741Z,5.80
2017-12-20T00:25:29.211Z,5.70
2017-12-20T00:28:01.087Z,5.70
2017-12-20T00:30:29.314Z,5.70
2017-12-20T00:32:56.773Z,5.70
2017-12-20T00:35:24.915Z,5.70
2017-12-20T00:37:55.091Z,5.60
2017-12-20T00:40:22.595Z,5.70
2017-12-20T00:42:51.684Z,5.60
2017-12-20T00:45:19.143Z,5.60
2017-12-20T00:47:49.304Z,5.70
2017-12-20T00:50:16.771Z,5.70
2017-12-20T00:52:44.234Z,5.70
2017-12-20T00:55:11.703Z,5.80
2017-12-20T00:57:39.988Z,5.90
2017-12-20T01:00:07.457Z,5.90
2017-12-20T01:02:35.125Z,5.90
2017-12-20T01:05:02.587Z,5.90
2017-12-20T01:07:30.235Z,5.90
2017-12-20T01:09:57.694Z,5.80
2017-12-20T01:12:26.010Z,5.70
2017-12-20T01:14:53.555Z,5.80
2017-12-20T01:17:21.838Z,5.70
2017-12-20T01:19:49.295Z,5.70
2017-12-20T01:22:16.859Z,5.60
2017-12-20T01:24:44.315Z,5.70
2017-12-20T01:27:11.783Z,5.80
2017-12-20T01:29:39.283Z,5.90
2017-12-20T01:32:06.752Z,5.80
2017-12-20T01:34:34.324Z,5.90
2017-12-20T01:37:02.491Z,6.00
2017-12-20T01:39:29.944Z,5.90
2017-12-20T01:41:58.119Z,5.90
2017-12-20T01:44:25.575Z,5.80
2017-12-20T01:46:53.651Z,5.80
2017-12-20T01:49:21.115Z,5.80
2017-12-20T01:51:48.719Z,5.90
2017-12-20T01:54:16.179Z,5.90
2017-12-20T01:56:46.687Z,5.90
2017-12-20T01:59:14.297Z,5.90
2017-12-20T02:01:41.856Z,6.00
2017-12-20T02:04:09.310Z,6.00
2017-12-20T02:06:36.780Z,6.00
2017-12-20T02:09:04.231Z,6.00
2017-12-20T02:11:31.706Z,5.90
2017-12-20T02:14:00.080Z,5.90
2017-12-20T02:16:27.607Z,5.90
2017-12-20T02:18:55.843Z,5.90
2017-12-20T02:21:23.919Z,5.90
2017-12-20T02:23:51.481Z,5.80
2017-12-20T02:26:18.955Z,5.80
2017-12-20T02:28:47.120Z,5.90
2017-12-20T02:31:14.587Z,5.90
2017-12-20T02:33:42.042Z,5.90
2017-12-20T02:36:09.512Z,5.80
2017-12-20T02:38:38.326Z,5.90
2017-12-20T02:41:13.976Z,5.90
2017-12-20T02:43:44.837Z,5.90
2017-12-20T02:46:13.170Z,5.90
2017-12-20T02:48:40.636Z,5.90
2017-12-20T02:51:08.110Z,5.90
2017-12-20T02:53:35.569Z,6.00
2017-12-20T02:56:03.059Z,6.00
2017-12-20T02:58:30.516Z,6.00
2017-12-20T03:00:57.993Z,6.00
2017-12-20T03:03:26.407Z,6.00
2017-12-20T03:05:54.138Z,6.00
2017-12-20T03:08:22.457Z,6.00
2017-12-20T03:10:49.921Z,6.00
2017-12-20T03:13:17.380Z,6.00
2017-12-20T03:15:44.891Z,6.00
2017-12-20T03:18:13.112Z,6.00
2017-12-20T03:20:40.627Z,6.10
2017-12-20T03:23:08.863Z,6.10
2017-12-20T03:25:36.324Z,6.10
2017-12-20T03:28:03.796Z,6.00
2017-12-20T03:30:31.243Z,6.10
2017-12-20T03:32:58.715Z,6.00
2017-12-20T03:35:26.273Z,6.00
2017-12-20T03:37:54.539Z,6.00
2017-12-20T03:40:22.869Z,5.90
2017-12-20T03:42:50.327Z,6.00
2017-12-20T03:45:21.177Z,5.90
2017-12-20T03:47:49.642Z,5.80
2017-12-20T03:50:17.093Z,5.90
2017-12-20T03:52:44.568Z,5.90
2017-12-20T03:55:12.027Z,6.00
2017-12-20T03:57:39.622Z,5.90
2017-12-20T04:00:07.071Z,5.90
2017-12-20T04:02:35.563Z,5.90
2017-12-20T04:05:03.027Z,5.90
2017-12-20T04:07:30.488Z,5.90
2017-12-20T04:10:01.571Z,5.90
2017-12-20T04:12:29.056Z,5.90
2017-12-20T04:14:59.290Z,6.00
2017-12-20T04:17:26.843Z,5.90
2017-12-20T04:19:54.308Z,5.90
2017-12-20T04:22:22.924Z,5.80
2017-12-20T04:24:51.243Z,5.80
2017-12-20T04:27:18.712Z,5.70
2017-12-20T04:29:46.173Z,5.70
2017-12-20T04:32:13.703Z,5.70
2017-12-20T04:34:41.163Z,5.70
2017-12-20T04:37:11.315Z,5.80
2017-12-20T04:39:38.783Z,5.80
2017-12-20T04:42:06.357Z,5.70
2017-12-20T04:44:34.474Z,5.70
2017-12-20T04:47:08.675Z,5.70
2017-12-20T04:49:36.176Z,5.70
2017-12-20T04:52:03.746Z,5.60
2017-12-20T04:54:31.199Z,5.60
2017-12-20T04:56:59.924Z,5.70
2017-12-20T04:59:28.288Z,5.70
2017-12-20T05:01:56.792Z,5.70
2017-12-20T05:04:24.243Z,5.70
2017-12-20T05:06:52.722Z,5.80
2017-12-20T05:09:20.951Z,5.80
2017-12-20T05:11:48.431Z,5.70
2017-12-20T05:14:17.988Z,5.70
2017-12-20T05:16:46.181Z,5.70
2017-12-20T05:19:13.644Z,5.70
2017-12-20T05:21:41.120Z,5.80
2017-12-20T05:24:09.283Z,5.80
2017-12-20T05:26:36.747Z,5.80
2017-12-20T05:29:04.256Z,5.80
2017-12-20T05:31:32.568Z,5.90
2017-12-20T05:34:01.002Z,5.80
2017-12-20T05:36:29.288Z,5.80
2017-12-20T05:38:59.551Z,5.80
2017-12-20T05:41:27.072Z,5.80
2017-12-20T05:43:54.523Z,5.80
2017-12-20T05:46:22.896Z,5.80
2017-12-20T05:48:50.360Z,5.80
2017-12-20T05:51:17.828Z,5.80
2017-12-20T05:53:46.167Z,5.80
2017-12-20T05:56:13.644Z,5.80
2017-12-20T05:58:41.120Z,5.80
2017-12-20T06:01:11.969Z,5.80
2017-12-20T06:03:40.104Z,5.80
2017-12-20T06:06:08.192Z,5.80
2017-12-20T06:08:36.193Z,5.80
2017-12-20T06:11:03.647Z,5.80
2017-12-20T06:13:31.144Z,5.80
2017-12-20T06:16:00.152Z,5.80
2017-12-20T06:18:27.624Z,5.80
2017-12-20T06:20:55.079Z,5.80
2017-12-20T06:23:22.604Z,5.80
2017-12-20T06:25:50.832Z,5.90
2017-12-20T06:28:18.400Z,5.90
2017-12-20T06:30:45.852Z,5.80
2017-12-20T06:33:13.348Z,5.90
2017-12-20T06:35:41.960Z,5.80
2017-12-20T06:38:16.465Z,5.80
2017-12-20T06:40:43.919Z,5.80
2017-12-20T06:43:12.155Z,5.80
2017-12-20T06:45:42.342Z,5.80
2017-12-20T06:48:09.807Z,5.80
2017-12-20T06:50:37.935Z,5.90
2017-12-20T06:53:06.171Z,5.90
2017-12-20T06:55:33.641Z,5.90
2017-12-20T06:58:01.154Z,5.90
2017-12-20T07:00:28.680Z,5.90
2017-12-20T07:02:56.985Z,6.00
2017-12-20T07:05:24.439Z,6.00
2017-12-20T07:07:51.911Z,6.00
2017-12-20T07:10:19.371Z,6.00
2017-12-20T07:12:46.843Z,5.90
2017-12-20T07:15:15.330Z,5.90
2017-12-20T07:17:42.793Z,5.90
2017-12-20T07:20:10.464Z,5.90
2017-12-20T07:22:37.940Z,6.00
2017-12-20T07:25:06.995Z,6.00
2017-12-20T07:27:34.463Z,6.00
2017-12-20T07:30:01.948Z,6.00
2017-12-20T07:32:30.261Z,5.90
2017-12-20T07:34:57.713Z,5.90
2017-12-20T07:37:25.183Z,6.00
2017-12-20T07:39:52.650Z,6.00
2017-12-20T07:42:20.122Z,6.10
2017-12-20T07:44:47.572Z,6.00
2017-12-20T07:47:15.040Z,6.00
2017-12-20T07:49:42.500Z,6.00
2017-12-20T07:52:09.971Z,6.10
2017-12-20T07:54:37.424Z,6.10
2017-12-20T07:57:04.903Z,6.10
2017-12-20T07:59:33.119Z,6.00
2017-12-20T08:02:00.660Z,6.00
2017-12-20T08:04:28.107Z,6.00
2017-12-20T08:06:55.571Z,6.00
2017-12-20T08:09:23.816Z,6.00
2017-12-20T08:11:52.040Z,6.00
2017-12-20T08:14:19.514Z,6.00
2017-12-20T08:16:46.967Z,6.00
2017-12-20T08:19:14.435Z,6.10
2017-12-20T08:21:41.908Z,6.10
2017-12-20T08:24:09.400Z,6.20
2017-12-20T08:26:36.865Z,6.20
2017-12-20T08:29:04.335Z,6.20
2017-12-20T08:31:31.912Z,6.20
2017-12-20T08:33:59.394Z,6.20
2017-12-20T08:36:26.852Z,6.10
2017-12-20T08:38:54.447Z,6.20
2017-12-20T08:41:21.915Z,6.20
2017-12-20T08:43:49.389Z,6.20
2017-12-20T08:46:16.852Z,6.20
2017-12-20T08:48:44.375Z,6.30
2017-12-20T08:51:11.840Z,6.30
2017-12-20T08:53:39.312Z,6.30
2017-12-20T08:56:06.767Z,6.50
2017-12-20T08:58:34.235Z,6.60
2017-12-20T09:01:01.747Z,6.60
2017-12-20T09:03:29.985Z,6.60
2017-12-20T09:05:57.460Z,6.60
2017-12-20T09:08:24.945Z,6.60
2017-12-20T09:10:52.472Z,6.50
2017-12-20T09:13:19.946Z,6.50
2017-12-20T09:15:48.186Z,6.40
2017-12-20T09:18:15.655Z,6.40
2017-12-20T09:20:43.667Z,6.30
2017-12-20T09:23:11.187Z,6.30
2017-12-20T09:25:38.783Z,6.40
2017-12-20T09:28:06.932Z,6.40
2017-12-20T09:30:35.899Z,6.50
2017-12-20T09:33:03.367Z,6.50
2017-12-20T09:35:31.780Z,6.50
2017-12-20T09:37:59.405Z,6.40
2017-12-20T09:40:26.860Z,6.50
2017-12-20T09:42:55.191Z,6.50
2017-12-20T09:45:23.521Z,6.50
2017-12-20T09:47:51.900Z,6.50
2017-12-20T09:50:19.356Z,6.50
2017-12-20T09:52:46.823Z,6.40
2017-12-20T09:55:15.829Z,6.50
2017-12-20T09:57:44.083Z,6.60
2017-12-20T10:00:11.544Z,6.50
2017-12-20T10:02:39.043Z,6.60
2017-12-20T10:05:06.526Z,6.60
2017-12-20T10:07:34.859Z,6.70
2017-12-20T10:10:03.088Z,6.60
2017-12-20T10:12:31.373Z,6.60
2017-12-20T10:14:59.431Z,6.60
2017-12-20T10:17:27.105Z,6.60
2017-12-20T10:19:54.581Z,6.60
2017-12-20T10:22:22.986Z,6.70
2017-12-20T10:24:50.508Z,6.70
2017-12-20T10:27:18.791Z,6.70
2017-12-20T10:29:46.332Z,6.70
2017-12-20T10:32:14.536Z,6.70
2017-12-20T10:34:42.803Z,6.80
2017-12-20T10:37:11.033Z,6.90
2017-12-20T10:39:38.530Z,6.80
2017-12-20T10:42:05.998Z,6.70
2017-12-20T10:44:34.856Z,6.70
2017-12-20T10:47:02.316Z,6.70
2017-12-20T10:49:29.784Z,6.70
2017-12-20T10:51:57.240Z,6.80
2017-12-20T10:54:24.706Z,6.80
2017-12-20T10:56:53.004Z,6.80
2017-12-20T10:59:21.244Z,6.80
2017-12-20T11:01:48.707Z,6.80
2017-12-20T11:04:17.175Z,6.80
2017-12-20T11:06:45.491Z,6.80
2017-12-20T11:09:13.726Z,6.80
2017-12-20T11:11:41.366Z,6.70
2017-12-20T11:14:08.891Z,6.70
2017-12-20T11:16:36.446Z,6.70
2017-12-20T11:19:04.736Z,6.60
2017-12-20T11:21:32.195Z,6.60
2017-12-20T11:24:00.524Z,6.70
2017-12-20T11:26:27.988Z,6.70
2017-12-20T11:28:56.152Z,6.70
2017-12-20T11:31:23.623Z,6.70
2017-12-20T11:33:51.095Z,6.70
2017-12-20T11:36:21.159Z,6.70
2017-12-20T11:38:49.286Z,6.70
2017-12-20T11:41:18.020Z,6.70
2017-12-20T11:43:45.492Z,6.70
2017-12-20T11:46:13.706Z,6.80
2017-12-20T11:48:41.976Z,6.90
2017-12-20T11:51:10.208Z,6.90
2017-12-20T11:53:37.671Z,6.90
2017-12-20T11:56:05.159Z,6.90
2017-12-20T11:58:32.632Z,7.00
2017-12-20T12:01:00.092Z,7.00
2017-12-20T12:03:27.583Z,7.10
2017-12-20T12:05:55.048Z,7.00
2017-12-20T12:08:22.543Z,7.10
2017-12-20T12:10:50.778Z,7.20
2017-12-20T12:13:18.271Z,7.20
2017-12-20T12:15:45.735Z,7.10
2017-12-20T12:18:13.976Z,7.00
2017-12-20T12:20:41.455Z,7.10
2017-12-20T12:23:08.917Z,7.10
2017-12-20T12:25:36.383Z,7.10
2017-12-20T12:28:04.616Z,7.00
2017-12-20T12:30:32.115Z,7.00
2017-12-20T12:33:00.344Z,7.10
2017-12-20T12:35:27.825Z,7.10
2017-12-20T12:37:55.284Z,7.00
2017-12-20T12:40:22.766Z,7.00
2017-12-20T12:42:50.990Z,7.00
2017-12-20T12:45:18.464Z,7.00
2017-12-20T12:47:45.921Z,7.00
2017-12-20T12:50:13.395Z,7.00
2017-12-20T12:52:40.856Z,7.00
2017-12-20T12:55:08.753Z,7.00
2017-12-20T12:57:36.211Z,7.00
2017-12-20T13:00:03.688Z,7.00
2017-12-20T13:02:31.155Z,6.90
2017-12-20T13:04:58.636Z,7.00
2017-12-20T13:07:26.119Z,7.00
2017-12-20T13:09:54.347Z,7.10
2017-12-20T13:12:21.820Z,7.10
2017-12-20T13:14:49.328Z,7.10
2017-12-20T13:17:16.797Z,7.00
2017-12-20T13:19:44.259Z,7.00
2017-12-20T13:22:11.720Z,7.00
2017-12-20T13:24:39.216Z,7.10
2017-12-20T13:27:06.672Z,7.00
2017-12-20T13:29:34.171Z,7.00
2017-12-20T13:32:01.635Z,7.00
2017-12-20T13:34:29.104Z,7.00
2017-12-20T13:36:56.559Z,7.10
2017-12-20T13:39:24.035Z,7.00
2017-12-20T13:41:51.495Z,7.10
2017-12-20T13:44:18.967Z,7.10
2017-12-20T13:46:46.432Z,7.00
2017-12-20T13:49:13.907Z,7.00
2017-12-20T13:51:42.130Z,7.00
2017-12-20T13:54:09.638Z,7.00
2017-12-20T13:56:37.860Z,6.90
2017-12-20T13:59:05.339Z,6.90
2017-12-20T14:01:32.804Z,6.90
2017-12-20T14:04:00.275Z,7.00
2017-12-20T14:06:27.738Z,7.00
2017-12-20T14:08:55.975Z,7.10
2017-12-20T14:11:23.460Z,7.10
2017-12-20T14:13:50.939Z,7.10
2017-12-20T14:16:19.179Z,7.10
2017-12-20T14:18:46.647Z,7.00
2017-12-20T14:21:14.117Z,7.00
2017-12-20T14:23:42.359Z,7.00
2017-12-20T14:26:09.820Z,7.00
2017-12-20T14:28:37.287Z,7.00
2017-12-20T14:31:04.784Z,7.10
2017-12-20T14:33:32.968Z,7.10
2017-12-20T14:36:01.237Z,7.00
2017-12-20T14:38:28.746Z,7.10
2017-12-20T14:40:56.912Z,7.00
2017-12-20T14:43:24.372Z,7.00
2017-12-20T14:45:51.850Z,7.00
2017-12-20T14:48:20.128Z,7.00
2017-12-20T14:50:47.599Z,7.00
2017-12-20T14:53:15.823Z,6.80
2017-12-20T14:55:43.317Z,6.80
2017-12-20T14:58:10.789Z,6.90
2017-12-20T15:00:39.031Z,6.80
2017-12-20T15:03:06.496Z,6.80
2017-12-20T15:05:33.980Z,6.80
2017-12-20T15:08:02.208Z,6.80
2017-12-20T15:10:29.823Z,6.80
2017-12-20T15:12:57.324Z,6.80
2017-12-20T15:15:24.790Z,6.70
2017-12-20T15:17:52.254Z,6.80
2017-12-20T15:20:19.728Z,6.80
2017-12-20T15:22:47.195Z,6.80
2017-12-20T15:25:15.435Z,7.00
2017-12-20T15:27:42.931Z,7.00
2017-12-20T15:30:11.211Z,7.10
2017-12-20T15:32:39.508Z,7.00
2017-12-20T15:35:07.001Z,7.00
2017-12-20T15:37:34.476Z,7.10
2017-12-20T15:40:01.953Z,7.00
2017-12-20T15:42:30.208Z,7.00
2017-12-20T15:44:58.533Z,7.00
2017-12-20T15:47:26.005Z,7.00
2017-12-20T15:49:53.475Z,6.90
2017-12-20T15:52:20.936Z,6.90
2017-12-20T15:54:48.408Z,6.90
2017-12-20T15:57:15.864Z,6.90
2017-12-20T15:59:43.357Z,6.90
2017-12-20T16:02:11.584Z,6.90
2017-12-20T16:04:39.056Z,6.90
2017-12-20T16:07:06.516Z,6.80
2017-12-20T16:09:34.004Z,6.90
2017-12-20T16:12:01.469Z,6.90
2017-12-20T16:14:28.939Z,6.80
2017-12-20T16:16:56.402Z,6.80
2017-12-20T16:19:23.876Z,6.90
2017-12-20T16:21:51.337Z,6.90
2017-12-20T16:24:18.796Z,6.90
2017-12-20T16:26:46.271Z,6.90
2017-12-20T16:29:13.741Z,6.90
2017-12-20T16:31:41.981Z,6.90
2017-12-20T16:34:09.446Z,6.90
2017-12-20T16:36:36.960Z,6.90
2017-12-20T16:39:04.428Z,6.90
2017-12-20T16:41:31.896Z,6.90
2017-12-20T16:43:59.396Z,6.90
2017-12-20T16:46:26.859Z,6.90
2017-12-20T16:48:55.091Z,6.90
2017-12-20T16:51:22.574Z,6.90
2017-12-20T16:53:50.027Z,6.90
2017-12-20T16:56:17.661Z,6.90
2017-12-20T16:58:45.823Z,6.90
2017-12-20T17:01:13.361Z,6.90
2017-12-20T17:03:40.820Z,6.90
2017-12-20T17:06:09.110Z,6.90
2017-12-20T17:08:36.566Z,6.90
2017-12-20T17:11:04.748Z,6.90
2017-12-20T17:13:39.019Z,6.90
2017-12-20T17:16:07.883Z,6.90
2017-12-20T17:18:35.343Z,6.90
2017-12-20T17:21:02.820Z,6.80
2017-12-20T17:23:30.284Z,6.80
2017-12-20T17:25:58.532Z,6.80
2017-12-20T17:28:26.786Z,6.80
2017-12-20T17:30:54.263Z,6.80
2017-12-20T17:33:21.732Z,6.80
2017-12-20T17:35:49.199Z,6.80
2017-12-20T17:38:17.428Z,6.90
2017-12-20T17:40:44.899Z,6.90
2017-12-20T17:43:12.412Z,6.80
2017-12-20T17:45:41.316Z,6.90
2017-12-20T17:48:09.074Z,6.80
2017-12-20T17:50:39.339Z,6.80
2017-12-20T17:53:06.860Z,6.80
2017-12-20T17:55:35.511Z,6.80
2017-12-20T17:58:04.567Z,6.80
2017-12-20T18:00:32.040Z,6.80
2017-12-20T18:02:59.495Z,6.80
2017-12-20T18:05:27.070Z,6.70
2017-12-20T18:07:55.451Z,6.70
2017-12-20T18:10:22.940Z,6.70
2017-12-20T18:12:50.400Z,6.80
2017-12-20T18:15:17.864Z,6.80
2017-12-20T18:17:45.352Z,6.70
2017-12-20T18:20:12.825Z,6.80
2017-12-20T18:22:40.283Z,6.80
2017-12-20T18:25:07.789Z,6.80
2017-12-20T18:27:35.248Z,6.80
2017-12-20T18:30:02.748Z,6.70
2017-12-20T18:32:30.215Z,6.80
2017-12-20T18:34:57.680Z,6.70
2017-12-20T18:37:25.172Z,6.80
2017-12-20T18:39:52.638Z,6.80
2017-12-20T18:42:20.120Z,6.70
2017-12-20T18:44:47.600Z,6.80
2017-12-20T18:47:15.076Z,6.80
2017-12-20T18:49:43.328Z,6.80
2017-12-20T18:52:10.831Z,6.80
2017-12-20T18:54:38.291Z,6.70
2017-12-20T18:57:05.861Z,6.70
2017-12-20T18:59:33.308Z,6.70
2017-12-20T19:02:00.783Z,6.70
2017-12-20T19:04:28.270Z,6.80
2017-12-20T19:06:55.739Z,6.80
2017-12-20T19:09:24.500Z,6.80
2017-12-20T19:11:51.976Z,6.80
2017-12-20T19:14:22.208Z,6.80
2017-12-20T19:16:49.684Z,6.80
2017-12-20T19:19:17.904Z,6.80
2017-12-20T19:21:45.376Z,6.80
2017-12-20T19:24:13.043Z,6.80
2017-12-20T19:26:40.516Z,6.80
2017-12-20T19:29:08.081Z,6.70
2017-12-20T19:31:35.554Z,6.80
2017-12-20T19:34:03.783Z,6.80
2017-12-20T19:36:31.256Z,6.70
2017-12-20T19:38:58.754Z,6.80
2017-12-20T19:41:26.291Z,6.70
2017-12-20T19:43:57.392Z,6.80
2017-12-20T19:46:24.868Z,6.80
2017-12-20T19:48:53.051Z,6.80
2017-12-20T19:51:27.431Z,6.80
2017-12-20T19:53:54.900Z,6.90
2017-12-20T19:56:29.223Z,6.80
2017-12-20T19:58:59.380Z,6.70
2017-12-20T20:01:28.496Z,6.70
2017-12-20T20:03:56.047Z,6.70
2017-12-20T20:06:24.284Z,6.80
2017-12-20T20:08:51.743Z,6.80
2017-12-20T20:11:19.218Z,6.90
2017-12-20T20:13:47.448Z,6.70
2017-12-20T20:16:14.944Z,6.70
2017-12-20T20:18:42.404Z,6.70
2017-12-20T20:21:09.875Z,6.80
2017-12-20T20:23:38.103Z,6.90
2017-12-20T20:26:05.585Z,6.90
2017-12-20T20:28:33.048Z,6.70
2017-12-20T20:31:00.519Z,6.70
2017-12-20T20:33:28.755Z,6.80
2017-12-20T20:35:56.227Z,6.80
2017-12-20T20:38:23.686Z,6.80
2017-12-20T20:40:51.164Z,6.80
2017-12-20T20:43:19.391Z,6.90
2017-12-20T20:45:46.856Z,6.90
2017-12-20T20:48:14.332Z,6.90
2017-12-20T20:50:41.792Z,6.80
2017-12-20T20:53:09.264Z,6.90
2017-12-20T20:55:37.488Z,6.90
2017-12-20T20:58:04.960Z,6.90
2017-12-20T21:00:32.427Z,6.90
2017-12-20T21:02:59.899Z,6.90
2017-12-20T21:05:27.382Z,7.00
2017-12-20T21:07:54.860Z,7.00
2017-12-20T21:10:23.042Z,7.00
2017-12-20T21:12:50.552Z,7.00
2017-12-20T21:15:19.567Z,6.90
2017-12-20T21:17:47.112Z,6.90
2017-12-20T21:20:15.339Z,7.00
2017-12-20T21:22:43.707Z,7.00
2017-12-20T21:25:11.172Z,7.00
2017-12-20T21:27:38.643Z,6.90
2017-12-20T21:30:06.105Z,6.90
2017-12-20T21:32:34.424Z,6.90
2017-12-20T21:35:02.720Z,6.90
2017-12-20T21:37:30.188Z,6.90
2017-12-20T21:39:57.652Z,6.90
2017-12-20T21:42:25.143Z,6.90
2017-12-20T21:44:53.427Z,7.00
2017-12-20T21:47:21.672Z,7.00
2017-12-20T21:49:49.128Z,7.00
2017-12-20T21:52:16.608Z,7.00
2017-12-20T21:54:44.068Z,7.00
2017-12-20T21:57:11.540Z,6.90
2017-12-20T21:59:39.767Z,7.00
2017-12-20T22:02:07.323Z,7.00
2017-12-20T22:04:34.788Z,7.00
2017-12-20T22:07:03.133Z,7.10
2017-12-20T22:09:30.664Z,7.10
2017-12-20T22:12:06.473Z,7.10
2017-12-20T22:14:33.931Z,7.10
2017-12-20T22:17:01.472Z,7.10
2017-12-20T22:19:28.995Z,7.10
2017-12-20T22:21:58.059Z,7.00
2017-12-20T22:24:25.518Z,7.00
2017-12-20T22:26:52.988Z,7.00
2017-12-20T22:29:20.463Z,7.00
2017-12-20T22:31:48.700Z,7.00
2017-12-20T22:34:16.992Z,7.00
2017-12-20T22:36:44.470Z,7.00
2017-12-20T22:39:12.692Z,7.10
2017-12-20T22:41:40.263Z,7.10
2017-12-20T22:44:08.511Z,7.10
2017-12-20T22:46:35.991Z,7.00
2017-12-20T22:49:03.518Z,7.00
2017-12-20T22:51:31.028Z,7.10
2017-12-20T22:53:58.499Z,7.10
2017-12-20T22:56:26.742Z,7.20
2017-12-20T22:58:54.214Z,7.10
2017-12-20T23:01:21.677Z,7.10
2017-12-20T23:03:49.144Z,7.20
2017-12-20T23:06:16.603Z,7.10
2017-12-20T23:08:44.841Z,7.10
2017-12-20T23:11:13.002Z,7.10
2017-12-20T23:13:40.481Z,7.10
2017-12-20T23:16:07.946Z,7.10
2017-12-20T23:18:35.428Z,7.20
2017-12-20T23:21:03.657Z,7.30
2017-12-20T23:23:31.127Z,7.20
2017-12-20T23:25:58.600Z,7.20
2017-12-20T23:28:26.072Z,7.20
2017-12-20T23:30:54.300Z,7.20
2017-12-20T23:33:21.807Z,7.20
2017-12-20T23:35:50.032Z,7.10
2017-12-20T23:38:17.504Z,7.10
2017-12-20T23:40:45.951Z,7.10
2017-12-20T23:43:13.412Z,7.10
2017-12-20T23:45:40.875Z,7.20
2017-12-20T23:48:08.344Z,7.30
2017-12-20T23:50:35.838Z,7.10
2017-12-20T23:53:04.080Z,7.10
2017-12-20T23:55:31.630Z,7.10
2017-12-20T23:58:00.096Z,7.20
